Observations for RENNES ST. JACQUES, France (LFRN)

LFRN 202230Z AUTO 20004KT 170V240 9999 OVC018 11/09 Q1020 TEMPO 4000 BR BKN009  
LFRN 202200Z AUTO 20005KT 9999 OVC018 11/09 Q1020 NOSIG 
LFRN 202130Z AUTO 20005KT 9999 OVC020 11/09 Q1020 NOSIG 
LFRN 202100Z AUTO 20005KT 170V240 9999 OVC020 11/09 Q1020 TEMPO 1500 BR BKN002  
LFRN 202030Z AUTO 21006KT 9999 OVC020 12/09 Q1020 TEMPO 1500 BR BKN002  
LFRN 202000Z AUTO 21007KT 9999 OVC020 12/09 Q1020 TEMPO 1500 BR BKN002  
LFRN 201930Z AUTO 22005KT 9999 OVC020 12/09 Q1020 TEMPO 1500 BR BKN002  
LFRN 201900Z AUTO 21007KT 190V260 9999 OVC019 12/09 Q1021 BECMG 3000 BR BKN008  
LFRN 201830Z AUTO 21007KT 9999 OVC019 12/09 Q1020 BECMG 3000 BR BKN008  
LFRN 201800Z AUTO 22008KT 200V260 9999 OVC020 12/09 Q1020 BECMG 3000 BR BKN008  
LFRN 201730Z AUTO 22007KT 180V250 9999 OVC020 12/09 Q1020 BECMG 3000 BR BKN008  
LFRN 201700Z AUTO 23006KT 210V270 9999 OVC020 12/09 Q1020 NOSIG 
LFRN 201630Z AUTO 22006KT 180V260 9999 OVC021 12/09 Q1021 NOSIG 
LFRN 201600Z AUTO 22006KT 200V260 9999 OVC022 12/09 Q1021 NOSIG 
LFRN 201530Z AUTO 22008KT 9999 OVC022 13/09 Q1021 NOSIG 
LFRN 201500Z AUTO 23007KT 200V280 9999 OVC021 13/09 Q1021 NOSIG 
LFRN 201430Z AUTO 23006KT 200V270 9999 BKN021 13/10 Q1021 NOSIG 
LFRN 201400Z AUTO 22007KT 9999 BKN022 BKN027 13/10 Q1021 TEMPO BKN012   
LFRN 201330Z AUTO 22008KT 170V250 9999 OVC018 13/10 Q1021 TEMPO BKN012  
LFRN 201300Z AUTO 22011KT 190V260 9999 BKN018 13/10 Q1022 TEMPO BKN012  
LFRN 201230Z AUTO 23009KT 200V270 9999 BKN015 13/10 Q1022 NOSIG 
LFRN 201200Z AUTO 23009KT 190V270 9999 BKN015 13/10 Q1022 NOSIG 
LFRN 201130Z AUTO 22009KT 180V250 9999 FEW015 13/10 Q1023 NOSIG 
LFRN 201100Z AUTO 22008KT 190V250 9999 FEW022 12/10 Q1023 TEMPO 3000 BR BKN005  
LFRN 201030Z AUTO 21008KT 9999 FEW008 SCT022 12/10 Q1023 TEMPO 3000 BR BKN005   
LFRN 201000Z AUTO 19004KT 160V230 9999 SCT005 BKN022 11/10 Q1024 TEMPO 3000 BR BKN005   
LFRN 200930Z AUTO 18004KT 160V240 7000 FEW004 10/09 Q1023 TEMPO 3000 BR BKN005  
LFRN 200900Z AUTO 17003KT 9000 BKN021 10/09 Q1023 TEMPO 3000 BR BKN005  
LFRN 200830Z AUTO 18003KT 160V280 8000 BKN021 09/09 Q1023 TEMPO 0500 FG VV///   
LFRN 200800Z AUTO 19003KT 7000 OVC020 09/09 Q1023 TEMPO 0500 FG VV///   
LFRN 200730Z AUTO 18005KT 5000 BR FEW002 OVC018 09/08 Q1023 TEMPO 0500 FG VV/// 
LFRN 200700Z AUTO 19004KT 4000 BR BKN002 OVC017 08/08 Q1023 TEMPO 0500 FG VV/// 
LFRN 200630Z AUTO 20006KT 3000 BR VV/// 08/08 Q1023 TEMPO 0500 FG   
LFRN 200600Z AUTO 22003KT 190V250 2100 BR VV/// 09/09 Q1024 TEMPO 0500 FG   
LFRN 200530Z AUTO 22003KT 180V240 4800 BR OVC002 09/09 Q1023 TEMPO 0500 FG VV///
LFRN 200500Z AUTO 21003KT 3600 BR VV/// 10/09 Q1023 TEMPO 0300 FG   
LFRN 200430Z AUTO 21004KT 2000 BR VV/// 10/10 Q1023 TEMPO 0300 FG   
LFRN 200400Z AUTO 22005KT 1500 1200 R28L/1500D BR VV/// 10/10 Q1023 TEMPO 0300 FG   
LFRN 200330Z AUTO 21006KT 0800 0700 R28L/0800U FG VV/// 10/10 Q1023 TEMPO 0300 FG   
LFRN 200300Z AUTO 21005KT 0600 0500 R28L/0600D FG VV/// 10/10 Q1023 TEMPO 0300 FG   
LFRN 200230Z AUTO 22004KT 3200 1100 R28L/1600D BR BKN003 10/09 Q1024 TEMPO 0300 FG VV///
LFRN 200200Z AUTO 19003KT 1500 1000 R28L/1800U BR BKN003 BKN018 BKN039 10/09 Q1024 TEMPO 0300 FG VV///  
LFRN 200130Z AUTO 21003KT 3900 BR FEW003 BKN019 OVC039 10/10 Q1024 TEMPO 0300 FG VV///  
LFRN 200100Z AUTO 19003KT 3000 BR FEW002 BKN017 BKN023 10/10 Q1024 TEMPO 0300 FG VV///  
LFRN 200030Z AUTO 20002KT 2600 BR BKN002 BKN018 OVC040 10/10 Q1025 TEMPO 0300 FG VV///  
LFRN 200000Z AUTO 24002KT 3700 BR BKN018 OVC039 10/10 Q1025 TEMPO 0300 FG VV/// 
LFRN 192330Z AUTO 20002KT 3600 BR FEW018 OVC039 10/10 Q1025 TEMPO 0300 FG VV/// 
LFRN 192300Z AUTO 00000KT 3400 BR BKN017 OVC038 10/10 Q1025 TEMPO 0300 FG BECMG VV///   
LFRN 192230Z AUTO 00000KT 3800 BR BKN018 OVC038 10/10 Q1025 TEMPO 0300 FG BECMG VV///   
LFRN 192200Z AUTO 21002KT 4300 BR BKN019 BKN024 OVC040 10/10 Q1025 BECMG 0800 FG VV///